Time;durP1;ratioP1;P1;durP2;ratioP2;P2;SDS_P1;SDS_P2;PMS_P1;PMS_P2;Temp;Humidity;BMP_temperature;BMP_pressure;BME280_temperature;BME280_humidity;BME280_pressure;Samples;Min_cycle;Max_cycle;Signal;HPM_P1;HPM_P2
2022/01/09 00:00:25;;;;;;;50.15;20.35;;;;;;;7.58;86.35;99069.66;5050177;28;20445;-39
2022/01/09 00:02:51;;;;;;;45.28;19.40;;;;;;;7.14;85.75;99062.97;5050232;28;20028;-39
2022/01/09 00:05:16;;;;;;;38.88;17.90;;;;;;;7.05;85.87;99059.69;5050042;28;20481;-39
2022/01/09 00:07:42;;;;;;;46.53;20.42;;;;;;;6.98;85.96;99056.22;5049829;28;20053;-38
2022/01/09 00:10:08;;;;;;;53.10;21.52;;;;;;;6.73;86.83;99054.03;5050024;28;20733;-38
2022/01/09 00:12:34;;;;;;;47.22;19.60;;;;;;;6.63;87.52;99051.75;5050129;28;20033;-38
2022/01/09 00:14:59;;;;;;;47.00;20.40;;;;;;;6.71;89.57;99048.13;5050340;28;20071;-38
2022/01/09 00:17:25;;;;;;;49.88;20.65;;;;;;;7.32;87.97;99050.03;5050021;28;20017;-38
2022/01/09 00:19:50;;;;;;;46.80;19.20;;;;;;;7.08;86.83;99054.00;5050227;28;20032;-38
2022/01/09 00:22:19;;;;;;;40.55;18.55;;;;;;;6.76;86.56;99044.91;5049838;28;20086;-38
2022/01/09 00:24:44;;;;;;;36.10;17.45;;;;;;;6.76;87.57;99044.91;5049777;28;20441;-37
2022/01/09 00:27:09;;;;;;;39.88;18.00;;;;;;;6.57;87.67;99047.25;5049817;28;20032;-38
2022/01/09 00:29:35;;;;;;;40.15;17.63;;;;;;;6.51;87.17;99044.56;5049908;28;20643;-38
2022/01/09 00:32:00;;;;;;;39.83;18.52;;;;;;;6.50;88.98;99046.41;5052450;28;20043;-38
2022/01/09 00:34:26;;;;;;;41.03;19.13;;;;;;;7.06;87.42;99048.09;5053478;28;20029;-39
2022/01/09 00:36:51;;;;;;;41.92;19.08;;;;;;;6.99;87.29;99048.09;5053183;28;20449;-38
2022/01/09 00:39:17;;;;;;;44.58;18.65;;;;;;;6.75;86.99;99045.94;5053189;28;20405;-38
2022/01/09 00:41:42;;;;;;;42.03;18.42;;;;;;;6.71;87.99;99042.03;5053166;28;20099;-38
2022/01/09 00:44:08;;;;;;;34.85;17.65;;;;;;;6.46;87.58;99043.31;5052892;28;20091;-38
2022/01/09 00:46:33;;;;;;;40.03;17.58;;;;;;;6.48;88.03;99029.09;5052900;28;20028;-38
2022/01/09 00:49:00;;;;;;;48.35;21.00;;;;;;;6.79;89.08;99032.09;5053016;28;20028;-38
2022/01/09 00:51:25;;;;;;;52.53;21.92;;;;;;;7.46;86.58;99045.56;5052923;28;20029;-38
2022/01/09 00:53:51;;;;;;;49.50;21.73;;;;;;;7.08;86.43;99035.47;5052579;28;20067;-38
2022/01/09 00:56:16;;;;;;;56.10;23.02;;;;;;;6.77;86.52;99028.84;5052813;28;20021;-38
2022/01/09 00:58:42;;;;;;;53.80;21.98;;;;;;;6.73;86.73;99018.88;5052828;28;20025;-38
2022/01/09 01:01:08;;;;;;;61.78;24.65;;;;;;;6.55;87.87;99022.00;5052827;28;20486;-38
2022/01/09 01:03:33;;;;;;;64.57;24.27;;;;;;;6.39;89.35;99010.75;5052942;28;20449;-38
2022/01/09 01:05:59;;;;;;;56.83;23.48;;;;;;;6.34;90.15;99014.97;5052528;28;20405;-38
2022/01/09 01:08:24;;;;;;;67.70;25.45;;;;;;;7.12;87.65;99012.94;5052575;28;20025;-38
2022/01/09 01:10:50;;;;;;;62.63;25.85;;;;;;;7.02;87.98;99005.34;5052546;28;20017;-38
2022/01/09 01:13:15;;;;;;;55.55;22.75;;;;;;;6.74;87.44;99001.97;5052572;28;20080;-39
2022/01/09 01:15:41;;;;;;;60.65;24.27;;;;;;;6.68;88.26;99008.84;5052606;28;20421;-38
2022/01/09 01:18:06;;;;;;;56.08;24.00;;;;;;;6.48;87.25;99014.06;5052616;28;20047;-39
2022/01/09 01:20:32;;;;;;;64.20;24.80;;;;;;;6.54;88.89;99015.91;5052548;28;20013;-39
2022/01/09 01:22:58;;;;;;;62.08;24.30;;;;;;;6.30;89.10;99009.25;5052151;28;20029;-39
2022/01/09 01:25:24;;;;;;;68.07;26.50;;;;;;;7.11;88.14;99008.63;5052466;28;20025;-39
2022/01/09 01:27:50;;;;;;;70.47;26.45;;;;;;;7.02;87.33;98999.25;5052096;28;20103;-39
2022/01/09 01:30:15;;;;;;;61.45;24.45;;;;;;;6.77;87.71;99001.59;5052045;28;20021;-39
2022/01/09 01:32:41;;;;;;;62.40;25.98;;;;;;;6.74;87.36;99001.97;5051843;28;20469;-39
2022/01/09 01:35:07;;;;;;;65.45;25.13;;;;;;;6.53;87.21;98997.59;5052128;28;20028;-39
2022/01/09 01:37:33;;;;;;;55.22;23.20;;;;;;;6.35;88.33;98995.47;5052130;28;20020;-39
2022/01/09 01:39:58;;;;;;;62.55;26.08;;;;;;;6.41;90.85;98998.13;5052233;28;20063;-39
2022/01/09 01:42:24;;;;;;;75.85;26.30;;;;;;;7.53;87.27;99003.25;5051928;28;20070;-39
2022/01/09 01:44:49;;;;;;;62.55;23.85;;;;;;;7.11;87.21;98994.59;5051849;28;20036;-39
2022/01/09 01:47:17;;;;;;;62.63;24.60;;;;;;;6.87;87.89;98990.63;5051828;28;20116;-39
2022/01/09 01:49:43;;;;;;;59.05;23.60;;;;;;;6.74;87.73;98994.03;5051926;28;20048;-39
2022/01/09 01:52:09;;;;;;;58.28;24.10;;;;;;;6.65;87.93;98986.28;5051779;28;20071;-39
2022/01/09 01:54:34;;;;;;;54.35;22.92;;;;;;;6.58;87.71;98977.50;5051880;28;20107;-39
2022/01/09 01:57:00;;;;;;;61.92;25.35;;;;;;;6.58;89.41;98971.41;5051922;28;20017;-39
2022/01/09 01:59:26;;;;;;;69.82;25.20;;;;;;;7.77;86.12;98973.53;5051713;28;20036;-39
2022/01/09 02:01:51;;;;;;;57.85;24.00;;;;;;;7.04;86.29;98958.38;5051632;28;20017;-39
2022/01/09 02:04:17;;;;;;;56.40;24.00;;;;;;;7.02;85.57;98960.38;5051824;28;20025;-37
2022/01/09 02:06:42;;;;;;;52.78;22.73;;;;;;;6.76;86.46;98960.28;5052115;28;20477;-40
2022/01/09 02:09:07;;;;;;;54.47;21.70;;;;;;;6.59;88.05;98971.22;5052281;28;20437;-40
2022/01/09 02:11:33;;;;;;;51.15;21.92;;;;;;;6.57;87.52;98973.22;5052026;28;20554;-40
2022/01/09 02:13:59;;;;;;;53.38;22.63;;;;;;;6.75;88.18;98971.88;5052067;28;20463;-40
2022/01/09 02:16:24;;;;;;;59.33;25.25;;;;;;;7.52;85.22;98961.88;5051930;28;20020;-39
2022/01/09 02:18:51;;;;;;;54.67;23.42;;;;;;;7.18;85.56;98953.09;5051923;28;20054;-39
2022/01/09 02:21:17;;;;;;;56.17;22.40;;;;;;;6.87;85.65;98958.91;5052364;28;20078;-39
2022/01/09 02:23:46;;;;;;;57.47;23.10;;;;;;;6.66;86.33;98955.34;5052168;28;20025;-39
2022/01/09 02:26:15;;;;;;;;;;;;;;;6.71;85.84;98957.44;5052531;28;20444;-39
2022/01/09 02:28:41;;;;;;;53.58;22.00;;;;;;;6.57;86.78;98941.50;5051831;28;19928;-39
2022/01/09 02:31:08;;;;;;;56.30;24.67;;;;;;;6.47;87.22;98938.41;5052005;28;20100;-39
2022/01/09 02:33:34;;;;;;;57.38;24.67;;;;;;;7.20;86.27;98930.72;5051735;28;20021;-39
2022/01/09 02:35:59;;;;;;;51.92;24.25;;;;;;;7.32;84.71;98930.09;5051833;28;20055;-39
2022/01/09 02:38:25;;;;;;;57.13;23.75;;;;;;;7.03;85.12;98913.59;5051620;28;20021;-39
2022/01/09 02:40:51;;;;;;;61.35;24.60;;;;;;;6.68;86.43;98912.88;5051611;28;20048;-39
2022/01/09 02:43:17;;;;;;;52.08;22.10;;;;;;;6.63;86.13;98918.75;5051701;28;20021;-39
2022/01/09 02:45:45;;;;;;;56.75;23.60;;;;;;;6.68;86.13;98915.50;5051370;28;20035;-39
2022/01/09 02:48:11;;;;;;;53.90;23.52;;;;;;;6.55;86.34;98906.53;5051264;28;20025;-39
2022/01/09 02:50:41;;;;;;;62.92;25.27;;;;;;;6.89;87.12;98894.19;5051675;28;20024;-39
2022/01/09 02:53:15;;;;;;;61.65;25.92;;;;;;;7.20;86.02;98898.94;5051181;28;20024;-39
2022/01/09 02:55:41;;;;;;;54.42;23.98;;;;;;;6.97;85.33;98903.81;5051147;28;20075;-39
2022/01/09 02:58:06;;;;;;;54.22;23.98;;;;;;;6.73;85.52;98908.63;5051500;28;20041;-39
2022/01/09 03:00:35;;;;;;;54.25;22.60;;;;;;;6.62;85.01;98910.00;5051208;28;20028;-39
2022/01/09 03:03:00;;;;;;;55.95;23.98;;;;;;;6.57;85.54;98906.34;5051469;28;20082;-39
2022/01/09 03:05:26;;;;;;;59.03;24.35;;;;;;;6.45;86.90;98906.91;5051436;28;20025;-39
2022/01/09 03:07:52;;;;;;;66.10;26.60;;;;;;;6.85;87.79;98907.03;5051110;28;20056;-39
2022/01/09 03:10:18;;;;;;;58.63;25.17;;;;;;;7.34;85.16;98909.53;5051148;28;20023;-39
2022/01/09 03:12:44;;;;;;;56.28;24.13;;;;;;;6.86;85.20;98897.25;5051712;28;20017;-39
2022/01/09 03:15:10;;;;;;;50.63;23.40;;;;;;;6.72;86.44;98904.34;5051282;28;20104;-39
2022/01/09 03:17:36;;;;;;;52.78;23.73;;;;;;;6.65;85.22;98895.56;5050196;28;20082;-39
2022/01/09 03:20:02;;;;;;;58.00;24.13;;;;;;;6.50;85.43;98903.66;5051180;28;20480;-39
2022/01/09 03:22:28;;;;;;;58.75;24.23;;;;;;;6.50;86.34;98902.84;5051158;28;20025;-39
2022/01/09 03:24:53;;;;;;;57.13;23.75;;;;;;;6.62;85.58;98890.69;5050988;28;20083;-39
2022/01/09 03:27:19;;;;;;;62.20;24.83;;;;;;;7.48;83.61;98889.19;5050897;28;20066;-39
2022/01/09 03:29:44;;;;;;;56.85;23.90;;;;;;;7.32;83.26;98895.69;5051097;28;20029;-38
2022/01/09 03:32:10;;;;;;;58.13;25.00;;;;;;;6.91;85.00;98902.78;5050921;28;20025;-39
2022/01/09 03:34:35;;;;;;;52.03;22.77;;;;;;;6.64;86.33;98909.78;5050795;28;20435;-39
2022/01/09 03:37:01;;;;;;;53.88;22.65;;;;;;;6.51;85.87;98909.75;5051072;28;20032;-39
2022/01/09 03:39:26;;;;;;;52.47;22.83;;;;;;;6.47;86.96;98904.03;5051042;28;20024;-39
2022/01/09 03:41:54;;;;;;;53.30;23.42;;;;;;;6.42;86.74;98898.53;5050865;28;20025;-39
2022/01/09 03:44:20;;;;;;;61.85;25.45;;;;;;;7.20;86.77;98895.50;5050892;28;20519;-40
2022/01/09 03:46:45;;;;;;;55.33;23.63;;;;;;;7.30;84.59;98903.03;5050936;28;20025;-39
2022/01/09 03:49:11;;;;;;;58.40;24.83;;;;;;;6.99;85.89;98899.94;5050997;28;20021;-39
2022/01/09 03:51:38;;;;;;;57.88;24.23;;;;;;;6.93;87.33;98889.31;5050958;28;20029;-39
2022/01/09 03:54:04;;;;;;;57.03;23.50;;;;;;;6.95;87.31;98885.50;5050762;28;20494;-39
2022/01/09 03:56:29;;;;;;;56.20;23.45;;;;;;;6.97;87.41;98887.94;5051065;28;20028;-38
2022/01/09 03:58:55;;;;;;;58.50;23.85;;;;;;;6.94;87.32;98883.84;5050619;28;20020;-38
2022/01/09 04:01:20;;;;;;;57.28;24.17;;;;;;;6.98;87.98;98878.97;5050763;28;20039;-40
2022/01/09 04:03:46;;;;;;;55.28;24.08;;;;;;;7.10;86.59;98884.47;5050852;28;20094;-40
2022/01/09 04:06:11;;;;;;;50.70;22.65;;;;;;;6.97;87.84;98888.75;5051648;28;20061;-39
2022/01/09 04:08:38;;;;;;;49.35;22.88;;;;;;;7.08;87.19;98887.31;5054265;28;20453;-38
2022/01/09 04:11:03;;;;;;;54.17;23.33;;;;;;;7.04;87.24;98892.22;5054389;28;20033;-38
2022/01/09 04:13:29;;;;;;;53.33;23.40;;;;;;;7.06;87.60;98884.06;5054340;28;20048;-38
2022/01/09 04:15:54;;;;;;;53.83;23.48;;;;;;;7.05;87.13;98879.81;5053235;28;20486;-39
2022/01/09 04:18:21;;;;;;;55.78;23.75;;;;;;;7.17;86.31;98872.06;5053050;28;20131;-39
2022/01/09 04:20:47;;;;;;;55.22;23.02;;;;;;;7.24;85.49;98875.53;5054097;28;20028;-39
2022/01/09 04:23:12;;;;;;;50.83;21.88;;;;;;;6.94;84.97;98873.25;5054360;28;20033;-39
2022/01/09 04:25:39;;;;;;;49.83;21.77;;;;;;;6.93;85.17;98879.59;5054553;28;20376;-39
2022/01/09 04:28:04;;;;;;;49.80;21.63;;;;;;;6.80;85.36;98877.72;5054267;28;20032;-38
2022/01/09 04:30:30;;;;;;;49.00;21.65;;;;;;;6.71;86.00;98878.09;5053916;28;20409;-38
2022/01/09 04:32:55;;;;;;;56.28;23.13;;;;;;;6.68;86.31;98868.72;5053949;28;20060;-39
2022/01/09 04:35:21;;;;;;;56.92;24.40;;;;;;;6.64;87.89;98864.84;5054149;28;20053;-39
2022/01/09 04:37:48;;;;;;;58.22;24.00;;;;;;;7.64;84.17;98862.28;5053847;28;20025;-39
2022/01/09 04:40:15;;;;;;;50.72;23.08;;;;;;;7.12;84.57;98869.22;5053952;28;20029;-39
2022/01/09 04:42:53;;;;;;;46.70;20.83;;;;;;;6.94;85.72;98865.31;5053799;28;20388;-39
2022/01/09 04:45:20;;;;;;;48.58;22.95;;;;;;;6.85;86.15;98866.53;5053691;28;20029;-39
2022/01/09 04:47:47;;;;;;;42.70;19.00;;;;;;;6.71;85.98;98864.88;5053548;28;20414;-39
2022/01/09 04:50:25;;;;;;;43.95;20.15;;;;;;;6.65;86.25;98850.63;5053631;28;20029;-39
2022/01/09 04:52:53;;;;;;;42.25;18.42;;;;;;;6.61;86.97;98863.44;5052776;28;20025;-38
2022/01/09 04:55:19;;;;;;;38.90;18.42;;;;;;;7.66;83.47;98870.03;5053796;28;20060;-38
2022/01/09 04:57:45;;;;;;;36.25;17.42;;;;;;;7.35;82.61;98859.06;5053955;28;20027;-38
2022/01/09 05:00:11;;;;;;;38.20;17.20;;;;;;;6.81;84.12;98874.03;5053577;28;20020;-39
2022/01/09 05:02:36;;;;;;;43.58;19.20;;;;;;;6.72;85.06;98863.84;5053673;28;20063;-38
2022/01/09 05:05:06;;;;;;;45.75;19.75;;;;;;;6.77;85.50;98872.00;5053544;28;20040;-39
2022/01/09 05:07:32;;;;;;;50.88;21.90;;;;;;;6.97;85.14;98870.22;5053106;28;20072;-39
2022/01/09 05:09:57;;;;;;;60.95;24.10;;;;;;;7.76;83.43;98871.22;5053347;28;20067;-39
2022/01/09 05:12:23;;;;;;;54.38;22.88;;;;;;;7.13;83.58;98869.00;5053374;28;20632;-38
2022/01/09 05:14:48;;;;;;;48.53;21.90;;;;;;;6.95;83.96;98868.78;5053627;28;20056;-39
2022/01/09 05:17:14;;;;;;;48.53;22.45;;;;;;;6.61;83.67;98860.78;5052856;28;20044;-38
2022/01/09 05:19:40;;;;;;;49.60;22.33;;;;;;;6.58;85.30;98858.53;5053251;28;20037;-39
2022/01/09 05:22:08;;;;;;;52.60;22.95;;;;;;;6.51;85.91;98862.16;5053315;28;20450;-38
2022/01/09 05:24:33;;;;;;;49.53;22.70;;;;;;;6.45;86.87;98869.06;5053297;28;20111;-38
2022/01/09 05:26:59;;;;;;;61.55;24.17;;;;;;;7.47;84.99;98863.75;5053021;28;20400;-39
2022/01/09 05:29:24;;;;;;;53.05;23.02;;;;;;;7.15;83.67;98858.22;5052839;28;20029;-39
2022/01/09 05:31:50;;;;;;;55.00;23.70;;;;;;;6.94;84.08;98865.31;5052656;28;20025;-38
2022/01/09 05:34:15;;;;;;;53.13;23.23;;;;;;;6.81;84.33;98865.31;5052724;28;20032;-39
2022/01/09 05:36:41;;;;;;;51.13;22.20;;;;;;;6.73;84.16;98860.22;5052560;28;20024;-39
2022/01/09 05:39:07;;;;;;;46.15;21.88;;;;;;;6.55;85.68;98863.41;5052423;28;20021;-39
2022/01/09 05:41:32;;;;;;;52.38;21.67;;;;;;;6.57;86.30;98859.56;5052933;28;20174;-38
2022/01/09 05:43:58;;;;;;;55.35;23.05;;;;;;;6.75;86.48;98868.75;5053002;28;20075;-38
2022/01/09 05:46:23;;;;;;;54.85;22.55;;;;;;;7.50;84.23;98871.25;5052211;28;20033;-38
2022/01/09 05:48:49;;;;;;;55.13;22.10;;;;;;;7.19;83.60;98867.38;5052490;28;20033;-38
2022/01/09 05:51:14;;;;;;;51.83;22.70;;;;;;;7.08;85.29;98879.38;5052522;28;20471;-39
2022/01/09 05:53:39;;;;;;;49.88;21.45;;;;;;;6.85;85.78;98866.53;5052596;28;20069;-39
2022/01/09 05:56:05;;;;;;;54.38;22.25;;;;;;;6.76;87.32;98873.00;5052543;28;20380;-38
2022/01/09 05:58:33;;;;;;;55.63;23.85;;;;;;;6.80;86.18;98871.63;5052470;28;20032;-39
2022/01/09 06:00:59;;;;;;;89.63;41.33;;;;;;;6.85;86.93;98877.09;5052266;28;20035;-38
2022/01/09 06:03:24;;;;;;;162.45;77.28;;;;;;;7.00;87.29;98882.22;5052146;28;20029;-38
2022/01/09 06:05:51;;;;;;;124.00;54.65;;;;;;;7.07;85.75;98879.59;5052002;28;20473;-38
2022/01/09 06:08:16;;;;;;;82.47;37.88;;;;;;;7.11;85.04;98879.00;5052252;28;20069;-38
2022/01/09 06:10:42;;;;;;;78.25;35.40;;;;;;;7.12;85.64;98879.78;5052176;28;20028;-38
2022/01/09 06:13:07;;;;;;;49.75;22.77;;;;;;;7.28;84.84;98875.97;5052228;28;20483;-39
2022/01/09 06:15:32;;;;;;;53.03;22.63;;;;;;;7.46;84.52;98865.56;5051995;28;20365;-38
2022/01/09 06:17:58;;;;;;;48.35;21.15;;;;;;;7.48;83.93;98862.72;5052119;28;20025;-39
2022/01/09 06:20:23;;;;;;;49.95;21.40;;;;;;;7.52;83.91;98854.16;5052169;28;20381;-39
2022/01/09 06:22:49;;;;;;;44.03;20.02;;;;;;;7.59;82.41;98860.25;5051540;28;20028;-38
2022/01/09 06:25:15;;;;;;;45.53;20.55;;;;;;;7.77;82.37;98866.75;5051876;28;20040;-39
2022/01/09 06:27:40;;;;;;;48.78;20.80;;;;;;;7.82;85.18;98867.78;5051454;28;20040;-39
2022/01/09 06:30:07;;;;;;;43.95;19.60;;;;;;;8.97;85.26;98859.16;5050947;28;20469;-39
2022/01/09 06:32:32;;;;;;;39.78;19.35;;;;;;;8.68;77.37;98854.41;5051822;28;20108;-39
2022/01/09 06:34:58;;;;;;;50.30;24.70;;;;;;;8.28;77.30;98858.06;5051838;28;20105;-39
2022/01/09 06:37:23;;;;;;;115.30;59.15;;;;;;;7.66;80.32;98865.53;5051548;28;20053;-38
2022/01/09 06:39:49;;;;;;;46.70;21.00;;;;;;;7.45;80.95;98866.59;5045376;28;20029;-52
2022/01/09 06:42:14;;;;;;;41.13;18.63;;;;;;;7.24;81.35;98860.47;5051185;28;20465;-53
2022/01/09 06:44:40;;;;;;;45.75;21.45;;;;;;;7.78;81.04;98832.09;5051841;28;20025;-49
2022/01/09 06:47:05;;;;;;;82.40;38.22;;;;;;;7.58;81.28;98849.88;5051361;28;20480;-49
2022/01/09 06:49:31;;;;;;;51.65;22.98;;;;;;;7.26;82.46;98849.69;5051238;28;20033;-50
2022/01/09 06:51:56;;;;;;;40.78;18.65;;;;;;;7.10;84.01;98850.06;5051605;28;20025;-50
2022/01/09 06:54:22;;;;;;;38.22;18.40;;;;;;;7.18;83.10;98836.66;5051439;28;20032;-50
2022/01/09 06:56:47;;;;;;;36.25;17.10;;;;;;;7.29;82.25;98843.16;5051403;28;20582;-50
2022/01/09 06:59:12;;;;;;;38.40;17.10;;;;;;;7.24;81.24;98838.50;5051329;28;20044;-50
2022/01/09 07:01:38;;;;;;;37.60;16.92;;;;;;;7.21;82.50;98825.66;5051111;28;20055;-50
2022/01/09 07:04:03;;;;;;;37.65;17.67;;;;;;;6.81;84.26;98818.50;5051124;28;20025;-51
2022/01/09 07:06:29;;;;;;;45.40;18.73;;;;;;;6.89;84.45;98804.28;5050947;28;20075;-49
2022/01/09 07:08:54;;;;;;;43.10;18.88;;;;;;;7.00;83.47;98819.53;5051135;28;20025;-49
2022/01/09 07:11:20;;;;;;;42.50;19.42;;;;;;;6.94;84.08;98828.28;5051550;28;20021;-50
2022/01/09 07:13:45;;;;;;;43.33;18.70;;;;;;;6.87;84.64;98826.66;5051249;28;20405;-49
2022/01/09 07:16:11;;;;;;;42.03;19.50;;;;;;;6.81;84.88;98823.78;5050545;28;20025;-50
2022/01/09 07:18:36;;;;;;;46.00;18.45;;;;;;;6.80;84.00;98824.03;5051272;28;20021;-50
2022/01/09 07:21:03;;;;;;;38.78;18.02;;;;;;;6.80;83.66;98821.38;5051014;28;20033;-49
2022/01/09 07:23:29;;;;;;;41.80;18.10;;;;;;;6.84;83.86;98826.06;5050427;28;20029;-50
2022/01/09 07:25:55;;;;;;;40.97;18.80;;;;;;;6.98;83.42;98842.75;5050927;28;20024;-51
2022/01/09 07:28:20;;;;;;;41.28;18.70;;;;;;;6.83;83.39;98835.00;5050094;28;20032;-51
2022/01/09 07:30:46;;;;;;;42.00;18.55;;;;;;;7.54;83.60;98828.28;5050232;28;20176;-51
2022/01/09 07:33:11;;;;;;;41.67;18.67;;;;;;;7.47;81.55;98824.84;5050144;28;20021;-50
2022/01/09 07:35:37;;;;;;;38.08;17.38;;;;;;;7.25;81.39;98824.22;5050003;28;20075;-49
2022/01/09 07:38:02;;;;;;;31.38;15.20;;;;;;;7.04;82.04;98841.94;5049580;28;20054;-51
2022/01/09 07:40:28;;;;;;;45.30;21.98;;;;;;;6.80;82.45;98835.41;5051703;28;20403;-52
2022/01/09 07:42:53;;;;;;;34.00;16.35;;;;;;;6.85;82.91;98824.22;5053628;28;20048;-52
2022/01/09 07:45:24;;;;;;;35.90;17.58;;;;;;;6.76;82.18;98817.47;5053511;28;20055;-38
2022/01/09 07:47:51;;;;;;;34.53;16.85;;;;;;;6.79;83.22;98817.09;5054116;28;20025;-39
2022/01/09 07:50:16;;;;;;;37.33;17.95;;;;;;;7.47;82.07;98816.09;5054001;28;20021;-38
2022/01/09 07:52:42;;;;;;;35.67;16.65;;;;;;;7.64;81.54;98811.97;5053827;28;20412;-38
2022/01/09 07:55:08;;;;;;;40.42;17.45;;;;;;;7.07;82.72;98789.66;5053905;28;20013;-39
2022/01/09 07:57:33;;;;;;;33.83;16.95;;;;;;;6.91;82.98;98798.78;5053805;28;20075;-39
2022/01/09 08:00:02;;;;;;;32.22;17.08;;;;;;;6.75;84.45;98810.56;5053451;28;20028;-38
2022/01/09 08:02:27;;;;;;;36.95;18.17;;;;;;;6.71;83.83;98812.81;5053879;28;20139;-39
2022/01/09 08:04:53;;;;;;;43.75;19.27;;;;;;;6.82;84.00;98814.06;5053291;28;20162;-38
2022/01/09 08:07:19;;;;;;;46.33;22.92;;;;;;;7.56;83.93;98813.00;5053287;28;20045;-38
2022/01/09 08:09:45;;;;;;;94.80;42.25;;;;;;;7.70;82.65;98807.69;5053306;28;20029;-39
2022/01/09 08:12:11;;;;;;;41.13;19.40;;;;;;;7.31;81.45;98791.69;5053515;28;20032;-38
2022/01/09 08:14:37;;;;;;;39.08;18.33;;;;;;;7.18;82.18;98803.06;5068968;28;20413;-40
2022/01/09 08:17:03;;;;;;;36.53;18.73;;;;;;;7.20;82.05;98808.16;5056825;28;20107;-38
2022/01/09 08:19:30;;;;;;;38.25;18.70;;;;;;;7.13;82.65;98810.81;5069289;28;20036;-37
2022/01/09 08:21:56;;;;;;;35.03;18.38;;;;;;;6.93;83.28;98802.88;5060722;28;20036;-38
2022/01/09 08:24:21;;;;;;;40.70;19.38;;;;;;;7.72;82.95;98818.88;5062203;28;20021;-39
2022/01/09 08:26:47;;;;;;;39.97;18.85;;;;;;;7.56;82.83;98812.22;5067675;28;20032;-38
2022/01/09 08:29:14;;;;;;;38.55;18.45;;;;;;;7.30;83.04;98813.84;5056431;28;20021;-38
2022/01/09 08:31:40;;;;;;;41.70;18.25;;;;;;;7.16;83.24;98807.75;5067824;28;20065;-39
2022/01/09 08:34:05;;;;;;;39.70;19.13;;;;;;;7.24;82.77;98810.19;5061749;28;20437;-38
2022/01/09 08:36:32;;;;;;;90.53;41.65;;;;;;;7.09;83.08;98803.50;5073299;28;20027;-39
2022/01/09 08:38:57;;;;;;;39.55;19.38;;;;;;;7.41;83.40;98797.34;5057667;28;20028;-39
2022/01/09 08:41:23;;;;;;;40.80;19.63;;;;;;;8.17;81.32;98787.97;5069868;28;20412;-39
2022/01/09 08:43:48;;;;;;;40.05;19.23;;;;;;;7.86;79.89;98785.22;5059823;28;20016;-39
2022/01/09 08:46:15;;;;;;;40.28;20.35;;;;;;;7.51;80.82;98786.34;5062952;28;20127;-51
2022/01/09 08:48:41;;;;;;;40.78;21.13;;;;;;;7.41;81.80;98786.75;5066626;28;20103;-49
2022/01/09 08:51:07;;;;;;;43.20;20.83;;;;;;;7.17;81.80;98788.22;5055868;28;20464;-38
2022/01/09 08:53:35;;;;;;;43.85;20.23;;;;;;;7.24;83.81;98785.56;5068789;28;20157;-38
2022/01/09 08:56:01;;;;;;;42.25;19.25;;;;;;;7.38;82.48;98779.22;5061075;28;20031;-38
2022/01/09 08:58:28;;;;;;;43.33;20.88;;;;;;;7.62;83.30;98783.06;5060701;28;20605;-38
2022/01/09 09:00:54;;;;;;;40.95;19.63;;;;;;;8.03;81.01;98781.91;5068412;28;20021;-39
2022/01/09 09:03:19;;;;;;;39.92;20.17;;;;;;;7.67;82.52;98782.41;5055644;28;20618;-39
2022/01/09 09:05:45;;;;;;;38.60;19.77;;;;;;;7.50;82.65;98778.59;5064996;28;20044;-38
2022/01/09 09:08:10;;;;;;;47.22;20.50;;;;;;;7.50;82.37;98774.13;5052358;28;20030;-48
2022/01/09 09:10:36;;;;;;;43.35;21.38;;;;;;;7.60;81.21;98773.69;5063253;28;20503;-48
2022/01/09 09:13:01;;;;;;;43.42;20.58;;;;;;;7.58;80.24;98773.09;5069683;28;20028;-49
2022/01/09 09:15:27;;;;;;;37.45;19.50;;;;;;;7.45;81.28;98763.34;5055343;28;20021;-48
2022/01/09 09:17:53;;;;;;;39.95;19.75;;;;;;;7.57;80.83;98766.97;5063875;28;20426;-52
2022/01/09 09:20:18;;;;;;;44.55;21.73;;;;;;;7.64;82.48;98759.81;5061081;28;20031;-51
2022/01/09 09:22:44;;;;;;;40.58;20.88;;;;;;;8.31;80.01;98756.09;5055475;28;20020;-49
2022/01/09 09:25:10;;;;;;;40.25;20.33;;;;;;;7.93;79.07;98748.94;5066035;28;20021;-49
2022/01/09 09:27:35;;;;;;;42.58;21.00;;;;;;;7.73;79.73;98741.88;5054348;28;20478;-51
2022/01/09 09:30:02;;;;;;;38.00;19.40;;;;;;;7.55;80.57;98750.47;5061333;28;20029;-48
2022/01/09 09:32:28;;;;;;;37.22;18.25;;;;;;;7.47;81.06;98741.97;5061059;28;20033;-48
2022/01/09 09:34:53;;;;;;;36.60;18.67;;;;;;;7.48;81.46;98751.53;5054382;28;20035;-52
2022/01/09 09:37:20;;;;;;;38.72;19.40;;;;;;;7.72;82.71;98744.75;5065924;28;20036;-49
2022/01/09 09:39:48;;;;;;;37.45;19.15;;;;;;;8.25;79.06;98741.03;5055205;28;20063;-50
2022/01/09 09:42:14;;;;;;;40.20;19.90;;;;;;;7.94;79.84;98740.78;5059044;28;20579;-50
2022/01/09 09:44:39;;;;;;;39.58;18.50;;;;;;;7.88;79.58;98735.50;5052168;28;20025;-49
2022/01/09 09:47:06;;;;;;;34.00;17.67;;;;;;;7.50;80.18;98731.78;5066064;28;20028;-52
2022/01/09 09:49:31;;;;;;;35.95;17.48;;;;;;;7.45;80.95;98747.47;5052317;28;20082;-50
2022/01/09 09:51:57;;;;;;;34.20;17.42;;;;;;;7.49;81.56;98743.38;5061604;28;20136;-49
2022/01/09 09:54:22;;;;;;;35.80;16.98;;;;;;;7.69;81.19;98743.31;5053672;28;20058;-51
2022/01/09 09:56:48;;;;;;;44.00;21.58;;;;;;;8.41;78.19;98725.47;5065023;28;20032;-50
2022/01/09 09:59:13;;;;;;;89.05;41.70;;;;;;;7.61;80.43;98725.00;5054083;28;20041;-51
2022/01/09 10:01:38;;;;;;;36.65;17.23;;;;;;;7.34;81.09;98727.72;5064023;28;20033;-47
2022/01/09 10:04:08;;;;;;;33.55;16.27;;;;;;;7.25;82.01;98718.38;5057644;28;20039;-50
2022/01/09 10:06:35;;;;;;;34.17;16.88;;;;;;;7.23;82.43;98715.13;5057877;28;20084;-51
2022/01/09 10:09:21;;;;;;;34.17;17.10;;;;;;;7.20;82.70;98708.41;5063450;28;20139;-51
2022/01/09 10:11:46;;;;;;;37.25;18.48;;;;;;;7.57;83.47;98713.22;5040539;28;20032;-52
2022/01/09 10:14:16;;;;;;;37.05;19.10;;;;;;;8.41;81.96;98721.97;5050059;28;20044;-49
2022/01/09 10:16:42;;;;;;;38.58;18.60;;;;;;;8.15;79.53;98715.81;5064273;28;20028;-52
2022/01/09 10:19:08;;;;;;;30.38;16.23;;;;;;;7.88;79.17;98707.19;5050963;28;20047;-51
2022/01/09 10:21:33;;;;;;;34.40;16.27;;;;;;;7.71;80.23;98712.16;5064582;28;20147;-51
2022/01/09 10:24:11;;;;;;;32.38;16.60;;;;;;;7.60;81.65;98710.16;5057921;28;20036;-49
2022/01/09 10:26:40;;;;;;;31.20;15.27;;;;;;;7.50;81.05;98713.25;5056794;28;20472;-49
2022/01/09 10:29:07;;;;;;;29.30;15.23;;;;;;;8.07;80.96;98707.28;5066349;28;20021;-49
2022/01/09 10:31:42;;;;;;;31.30;14.57;;;;;;;8.35;79.00;98707.72;5054520;28;20036;-49
2022/01/09 10:34:08;;;;;;;28.38;15.32;;;;;;;8.12;79.05;98699.53;5060644;28;20033;-50
2022/01/09 10:36:33;;;;;;;31.30;15.82;;;;;;;7.89;79.26;98690.25;5062735;28;20623;-49
2022/01/09 10:39:12;;;;;;;30.00;16.05;;;;;;;7.93;78.61;98688.00;5053442;28;20056;-51
2022/01/09 10:41:56;;;;;;;29.85;15.38;;;;;;;7.75;80.46;98689.50;5040494;28;20503;-48
2022/01/09 10:44:32;;;;;;;31.45;15.77;;;;;;;7.79;79.96;98680.13;5059578;28;20091;-49
2022/01/09 10:47:02;;;;;;;32.47;16.50;;;;;;;8.05;81.10;98674.88;5066631;28;20035;-49
2022/01/09 10:49:41;;;;;;;35.88;18.17;;;;;;;8.59;79.08;98663.72;5038108;28;20345;-49
2022/01/09 10:52:38;;;;;;;30.42;16.30;;;;;;;8.18;79.70;98654.41;5061403;28;20048;-49
2022/01/09 10:55:05;;;;;;;32.25;17.15;;;;;;;8.07;80.14;98659.59;5053232;28;20037;-52
2022/01/09 10:57:32;;;;;;;32.05;17.05;;;;;;;8.09;79.80;98662.84;5066680;28;20032;-48
2022/01/09 11:00:08;;;;;;;33.53;16.60;;;;;;;7.93;79.51;98653.56;5058318;28;20046;-49
2022/01/09 11:02:34;;;;;;;33.33;17.70;;;;;;;7.77;79.21;98652.22;5057233;28;20084;-50
2022/01/09 11:04:59;;;;;;;33.75;17.40;;;;;;;7.86;79.50;98644.84;5066745;28;20682;-49
2022/01/09 11:07:25;;;;;;;31.58;17.55;;;;;;;7.84;80.47;98647.69;5053552;28;20424;-49
2022/01/09 11:09:51;;;;;;;34.67;17.88;;;;;;;8.20;80.80;98649.69;5063509;28;20041;-49
2022/01/09 11:12:19;;;;;;;35.95;17.85;;;;;;;8.77;78.77;98641.72;5060881;28;20024;-49
2022/01/09 11:14:45;;;;;;;36.35;17.90;;;;;;;8.48;78.85;98640.56;5055380;28;20082;-49
2022/01/09 11:17:11;;;;;;;34.55;16.95;;;;;;;8.32;78.49;98631.28;5048992;28;20111;-50
2022/01/09 11:19:37;;;;;;;33.55;16.08;;;;;;;8.26;77.80;98621.53;5055297;28;20083;-48